Language selection

Weather shortcuts

Whitefish Bay: Past 24 Hour Conditions

 

Slate Island - 45136

01:00 AM EDT 24 June 2024Buoy position: 48.52N 86.95W
Disclaimer

This table is a summary of hourly weather conditions for the past 24 hours.
Please note that these observations might not always be representative of weather conditions over their associated marine area.

Date / Time
(EDT)
Wind(knots) Wave height(m) Wave period(s) Pressure(kPa) Air tempC) Water tempC)
24 June 2024
1:00 WNW 7 gusts 8 0.34 4.5 101.1 8 6
0:00 W 9 gusts 10 0.37 4.4 101.1 8 6
23 June 2024
23:00 WSW 9 gusts 10 0.38 4.7 101.0 9 6
22:00 SW 6 gusts 8 0.45 3.3 101.0 9 6
21:00 W 10 gusts 11 0.51 3.8 100.9 11 6
20:00 WNW 12 gusts 14 0.61 3.4 100.9 11 6
19:00 WNW 16 gusts 21 0.53 3.2 100.8 13 6
18:00 W 11 gusts 12 0.42 3.1 100.8 10 6
17:00 WNW 15 gusts 17 0.50 3.1 100.8 13 6
16:00 WNW 15 gusts 18 0.35 2.7 100.7 13 7
15:00 WNW 14 gusts 18 0.20 3.0 100.7 11 7
14:00 WNW 9 gusts 10 0.12 3.0 100.7 11 7
13:00 WNW 8 gusts 9 0.10 2.4 100.7 10 7
12:00 NW 8 gusts 9 0.08 2.2 100.6 11 7
11:00 NW 8 gusts 9 0.06 2.4 100.6 11 7
10:00 NW 5 gusts 6 0.06 2.0 100.6 14 7
9:00 NNE 8 gusts 9 0.05 1.9 100.6 12 7
8:00 N 5 gusts 6 0.05 2.0 100.6 12 7
7:00 WNW 4 gusts 6 N/A 2.8 100.6 11 7
6:00 ENE 3 gusts 3 N/A 1.8 100.5 11 7
5:00 NW 4 gusts 5 N/A 3.4 100.6 10 7
4:00 WNW 4 gusts 5 N/A 3.7 100.6 9 7
3:00 SW 4 gusts 5 N/A 1.7 100.7 10 7
2:00 W 5 gusts 6 N/A 3.8 100.7 10 7
1:00 WSW 4 gusts 5 0.02 3.8 100.8 11 7

Zoom-in to make a selection

Map of Great Lakes - Lake Superior marine weather areas Mid Superior - 45001 East Superior - 45004 West Superior - 45006 Slate Island - 45136 Lake Of the Woods - 45148 Kenora Airport Royal Island Armstrong Airport Caribou Island Marathon Airport Pukaskwa National Park Thunder Bay Airport Welcome Island Little Flatland Island Sault Ste. Marie Airport Wawa Airport
Legend:
buoy Buoy
land station Land Station

Great Lakes - Lake Superior Area

Another Region

Features

New Predicting and Alerting Coastal Flooding Program

Find out about coastal flooding coverage, forecasts and warnings in your region

Date modified: